createdAt,value
2023-01-18T00:02:11.816Z,33.67
2023-01-18T00:04:35.439Z,36.93
2023-01-18T00:06:59.045Z,37.17
2023-01-18T00:09:22.782Z,35.70
2023-01-18T00:11:46.318Z,39.97
2023-01-18T00:14:11.318Z,39.67
2023-01-18T00:16:35.127Z,37.23
2023-01-18T00:19:00.857Z,39.13
2023-01-18T00:21:25.343Z,39.53
2023-01-18T00:23:48.958Z,39.47
2023-01-18T00:26:14.047Z,36.57
2023-01-18T00:28:38.440Z,37.07
2023-01-18T00:31:03.592Z,37.57
2023-01-18T00:33:27.227Z,38.30
2023-01-18T00:35:57.901Z,37.13
2023-01-18T00:38:21.491Z,35.33
2023-01-18T00:40:47.253Z,35.00
2023-01-18T00:43:28.023Z,34.23
2023-01-18T00:45:51.677Z,33.07
2023-01-18T00:48:16.635Z,33.57
2023-01-18T00:50:40.299Z,32.10
2023-01-18T00:53:03.914Z,31.50
2023-01-18T00:55:28.028Z,30.47
2023-01-18T00:57:51.645Z,32.00
2023-01-18T01:00:16.345Z,30.47
2023-01-18T01:02:41.107Z,29.67
2023-01-18T01:05:24.299Z,29.50
2023-01-18T01:07:50.188Z,27.03
2023-01-18T01:10:13.690Z,28.23
2023-01-18T01:12:55.149Z,29.20
2023-01-18T01:15:36.371Z,27.23
2023-01-18T01:18:17.284Z,27.83
2023-01-18T01:20:59.783Z,27.77
2023-01-18T01:23:42.718Z,25.40
2023-01-18T01:26:08.333Z,25.17
2023-01-18T01:28:31.891Z,24.93
2023-01-18T01:31:00.463Z,25.97
2023-01-18T01:33:24.435Z,24.53
2023-01-18T01:35:49.953Z,25.40
2023-01-18T01:38:13.504Z,24.17
2023-01-18T01:40:37.145Z,24.50
2023-01-18T01:43:00.657Z,23.03
2023-01-18T01:45:26.893Z,22.73
2023-01-18T01:47:50.442Z,23.07
2023-01-18T01:50:21.067Z,23.17
2023-01-18T01:52:48.806Z,23.33
2023-01-18T01:55:18.217Z,23.20
2023-01-18T01:57:46.767Z,22.23
2023-01-18T02:00:13.382Z,21.50
2023-01-18T02:02:38.046Z,20.90
2023-01-18T02:05:04.806Z,20.73
2023-01-18T02:07:29.763Z,20.87
2023-01-18T02:09:56.826Z,20.50
2023-01-18T02:12:21.167Z,20.60
2023-01-18T02:14:44.861Z,20.97
2023-01-18T02:17:28.352Z,20.93
2023-01-18T02:20:52.032Z,21.23
2023-01-18T02:24:10.266Z,19.97
2023-01-18T02:26:54.427Z,20.03
2023-01-18T02:29:23.190Z,19.87
2023-01-18T02:32:09.529Z,20.63
2023-01-18T02:34:42.011Z,18.87
2023-01-18T02:37:12.485Z,19.10
2023-01-18T02:39:45.167Z,20.27
2023-01-18T02:42:36.062Z,19.10
2023-01-18T02:45:21.519Z,18.90
2023-01-18T02:47:46.686Z,19.27
2023-01-18T02:50:12.114Z,19.77
2023-01-18T02:52:47.244Z,24.67
2023-01-18T02:55:19.255Z,23.67
2023-01-18T02:57:42.923Z,21.83
2023-01-18T03:00:12.859Z,20.27
2023-01-18T03:02:37.411Z,19.53
2023-01-18T03:05:00.996Z,19.37
2023-01-18T03:07:30.082Z,19.87
2023-01-18T03:09:55.672Z,19.83
2023-01-18T03:12:45.981Z,20.33
2023-01-18T03:15:20.229Z,19.77
2023-01-18T03:17:49.236Z,19.30
2023-01-18T03:20:17.078Z,20.37
2023-01-18T03:23:04.336Z,18.70
2023-01-18T03:25:31.979Z,19.50
2023-01-18T03:28:14.262Z,20.17
2023-01-18T03:30:58.831Z,19.10
2023-01-18T03:33:45.726Z,19.97
2023-01-18T03:36:16.272Z,19.83
2023-01-18T03:38:42.408Z,19.67
2023-01-18T03:41:08.071Z,18.13
2023-01-18T03:43:37.893Z,18.80
2023-01-18T03:46:03.802Z,19.63
2023-01-18T03:48:27.395Z,18.90
2023-01-18T03:50:53.578Z,19.23
2023-01-18T03:53:32.852Z,20.10
2023-01-18T03:56:02.897Z,19.10
2023-01-18T03:58:36.230Z,18.90
2023-01-18T04:01:00.312Z,18.63
2023-01-18T04:03:25.251Z,19.27
2023-01-18T04:05:49.114Z,19.10
2023-01-18T04:08:12.616Z,17.30
2023-01-18T04:10:36.250Z,18.87
2023-01-18T04:13:00.275Z,18.70
2023-01-18T04:15:24.589Z,18.33
2023-01-18T04:17:49.805Z,18.70
2023-01-18T04:20:15.050Z,17.53
2023-01-18T04:22:38.680Z,17.90
2023-01-18T04:25:02.285Z,18.13
2023-01-18T04:27:26.247Z,18.23
2023-01-18T04:29:49.813Z,18.17
2023-01-18T04:32:13.412Z,17.83
2023-01-18T04:34:37.112Z,17.77
2023-01-18T04:37:02.337Z,17.47
2023-01-18T04:39:26.355Z,17.67
2023-01-18T04:41:49.971Z,17.97
2023-01-18T04:44:14.016Z,18.50
2023-01-18T04:46:38.399Z,17.73
2023-01-18T04:49:02.224Z,17.97
2023-01-18T04:51:27.289Z,19.00
2023-01-18T04:53:52.808Z,17.17
2023-01-18T04:56:16.923Z,17.60
2023-01-18T04:58:40.568Z,18.33
2023-01-18T05:01:04.632Z,18.27
2023-01-18T05:03:28.282Z,18.30
2023-01-18T05:05:52.707Z,17.93
2023-01-18T05:08:16.284Z,18.50
2023-01-18T05:10:41.181Z,17.73
2023-01-18T05:13:04.901Z,17.30
2023-01-18T05:15:28.435Z,17.20
2023-01-18T05:17:52.018Z,16.97
2023-01-18T05:20:15.700Z,16.57
2023-01-18T05:22:39.404Z,16.87
2023-01-18T05:25:02.933Z,17.63
2023-01-18T05:27:27.885Z,16.67
2023-01-18T05:29:51.913Z,17.07
2023-01-18T05:32:15.603Z,16.87
2023-01-18T05:34:39.142Z,16.80
2023-01-18T05:37:04.551Z,17.00
2023-01-18T05:39:28.064Z,16.57
2023-01-18T05:41:51.852Z,16.90
2023-01-18T05:44:16.763Z,17.20
2023-01-18T05:46:40.371Z,16.53
2023-01-18T05:49:03.913Z,15.97
2023-01-18T05:51:27.498Z,16.47
2023-01-18T05:53:51.113Z,16.40
2023-01-18T05:56:15.253Z,17.03
2023-01-18T05:58:39.088Z,16.43
2023-01-18T06:01:04.505Z,16.27
2023-01-18T06:03:28.148Z,16.13
2023-01-18T06:05:52.604Z,15.93
2023-01-18T06:08:16.553Z,16.43
2023-01-18T06:10:40.467Z,15.70
2023-01-18T06:13:04.029Z,15.67
2023-01-18T06:15:27.712Z,14.70
2023-01-18T06:17:52.654Z,15.23
2023-01-18T06:20:17.068Z,16.77
2023-01-18T06:22:40.774Z,14.63
2023-01-18T06:25:04.456Z,16.03
2023-01-18T06:27:28.086Z,14.93
2023-01-18T06:29:52.012Z,15.43
2023-01-18T06:32:15.967Z,17.73
2023-01-18T06:34:40.973Z,16.97
2023-01-18T06:37:05.291Z,15.80
2023-01-18T06:39:28.838Z,15.80
2023-01-18T06:41:52.499Z,15.63
2023-01-18T06:44:16.203Z,15.57
2023-01-18T06:46:39.717Z,15.77
2023-01-18T06:49:03.352Z,15.17
2023-01-18T06:51:28.271Z,16.20
2023-01-18T06:53:51.868Z,15.13
2023-01-18T06:56:15.936Z,15.57
2023-01-18T06:58:39.620Z,15.80
2023-01-18T07:01:03.386Z,18.20
2023-01-18T07:03:29.026Z,15.63
2023-01-18T07:05:54.747Z,16.43
2023-01-18T07:08:21.013Z,15.60
2023-01-18T07:10:44.546Z,15.33
2023-01-18T07:13:08.152Z,15.53
2023-01-18T07:15:31.817Z,14.90
2023-01-18T07:17:55.382Z,15.07
2023-01-18T07:20:19.979Z,15.20
2023-01-18T07:22:43.828Z,15.50
2023-01-18T07:25:13.264Z,15.23
2023-01-18T07:27:36.965Z,14.93
2023-01-18T07:30:00.668Z,14.97
2023-01-18T07:32:24.359Z,15.40
2023-01-18T07:34:47.882Z,13.77
2023-01-18T07:37:11.487Z,14.93
2023-01-18T07:39:35.039Z,15.73
2023-01-18T07:42:00.040Z,15.20
2023-01-18T07:44:24.146Z,14.33
2023-01-18T07:46:47.723Z,13.63
2023-01-18T07:49:11.361Z,13.80
2023-01-18T07:51:35.179Z,13.47
2023-01-18T07:53:58.790Z,12.63
2023-01-18T07:56:22.939Z,12.63
2023-01-18T07:58:48.223Z,11.33
2023-01-18T08:01:15.162Z,11.10
2023-01-18T08:03:39.442Z,11.53
2023-01-18T08:06:07.118Z,11.17
2023-01-18T08:08:31.724Z,11.37
2023-01-18T08:10:56.964Z,11.50
2023-01-18T08:13:20.559Z,12.00
2023-01-18T08:15:45.537Z,12.57
2023-01-18T08:18:09.641Z,12.77
2023-01-18T08:20:33.991Z,9.97
2023-01-18T08:22:59.051Z,10.43
2023-01-18T08:25:22.807Z,10.07
2023-01-18T08:27:46.334Z,9.73
2023-01-18T08:30:11.996Z,9.50
2023-01-18T08:32:37.078Z,8.97
2023-01-18T08:35:00.968Z,9.53
2023-01-18T08:37:24.815Z,9.13
2023-01-18T08:39:48.420Z,8.73
2023-01-18T08:42:13.284Z,8.67
2023-01-18T08:44:36.985Z,9.10
2023-01-18T08:47:00.556Z,9.43
2023-01-18T08:49:25.580Z,9.10
2023-01-18T08:51:49.189Z,8.50
2023-01-18T08:54:12.816Z,8.23
2023-01-18T08:56:36.441Z,8.37
2023-01-18T08:59:00.218Z,8.67
2023-01-18T09:01:24.210Z,8.93
2023-01-18T09:03:50.586Z,8.97
2023-01-18T09:06:16.834Z,8.80
2023-01-18T09:08:40.488Z,9.17
2023-01-18T09:11:05.031Z,10.50
2023-01-18T09:13:28.596Z,10.87
2023-01-18T09:16:00.587Z,8.83
2023-01-18T09:18:24.349Z,9.40
2023-01-18T09:20:47.867Z,12.30
2023-01-18T09:23:12.870Z,8.67
2023-01-18T09:25:37.007Z,9.23
2023-01-18T09:28:02.650Z,8.00
2023-01-18T09:30:26.223Z,7.40
2023-01-18T09:32:49.785Z,7.57
2023-01-18T09:35:18.073Z,7.47
2023-01-18T09:37:41.652Z,8.13
2023-01-18T09:40:08.499Z,8.03
2023-01-18T09:42:39.449Z,8.23
2023-01-18T09:45:03.599Z,8.37
2023-01-18T09:47:30.893Z,8.27
2023-01-18T09:49:57.888Z,7.57
2023-01-18T09:52:31.762Z,7.83
2023-01-18T09:55:06.019Z,7.33
2023-01-18T09:57:44.743Z,9.13
2023-01-18T10:00:21.660Z,11.83
2023-01-18T10:02:48.680Z,11.70
2023-01-18T10:05:18.336Z,10.27
2023-01-18T10:08:02.607Z,10.20
2023-01-18T10:10:28.436Z,8.53
2023-01-18T10:13:01.559Z,8.37
2023-01-18T10:15:30.138Z,8.13
2023-01-18T10:17:57.672Z,7.43
2023-01-18T10:20:33.830Z,8.47
2023-01-18T10:23:03.120Z,7.70
2023-01-18T10:25:34.450Z,7.27
2023-01-18T10:28:25.269Z,7.63
2023-01-18T10:31:03.916Z,7.70
2023-01-18T10:33:32.285Z,8.10
2023-01-18T10:36:00.470Z,7.20
2023-01-18T10:38:27.500Z,6.43
2023-01-18T10:40:59.474Z,6.13
2023-01-18T10:43:25.855Z,6.30
2023-01-18T10:45:49.488Z,6.43
2023-01-18T10:48:32.933Z,6.77
2023-01-18T10:50:59.940Z,7.93
2023-01-18T10:53:31.016Z,7.40
2023-01-18T10:56:02.225Z,7.27
2023-01-18T10:58:31.589Z,7.67
2023-01-18T11:00:56.453Z,7.63
2023-01-18T11:03:23.537Z,8.37
2023-01-18T11:05:47.683Z,8.07
2023-01-18T11:08:22.623Z,8.57
2023-01-18T11:10:47.369Z,9.17
2023-01-18T11:13:28.859Z,9.17
2023-01-18T11:16:12.828Z,9.00
2023-01-18T11:18:36.622Z,9.03
2023-01-18T11:21:00.233Z,9.33
2023-01-18T11:23:27.043Z,9.77
2023-01-18T11:25:58.554Z,9.47
2023-01-18T11:28:27.488Z,10.23
2023-01-18T11:30:59.086Z,10.03
2023-01-18T11:33:25.739Z,9.43
2023-01-18T11:35:55.967Z,10.00
2023-01-18T11:38:20.696Z,9.47
2023-01-18T11:40:44.525Z,10.33
2023-01-18T11:43:17.444Z,10.40
2023-01-18T11:45:49.115Z,9.07
2023-01-18T11:48:24.268Z,8.83
2023-01-18T11:50:54.240Z,9.00
2023-01-18T11:53:32.007Z,9.53
2023-01-18T11:56:06.125Z,9.27
2023-01-18T11:58:32.392Z,8.63
2023-01-18T12:01:22.772Z,8.30
2023-01-18T12:03:57.370Z,8.93
2023-01-18T12:06:38.906Z,11.27
2023-01-18T12:09:20.278Z,11.83
2023-01-18T12:12:13.275Z,9.93
2023-01-18T12:15:01.037Z,9.87
2023-01-18T12:17:46.786Z,10.30
2023-01-18T12:20:28.899Z,10.83
2023-01-18T12:23:24.602Z,10.83
2023-01-18T12:26:12.086Z,10.93
2023-01-18T12:28:59.416Z,12.43
2023-01-18T12:31:37.065Z,11.17
2023-01-18T12:34:13.728Z,11.47
2023-01-18T12:37:15.769Z,11.70
2023-01-18T12:39:55.854Z,10.67
2023-01-18T12:42:33.055Z,10.77
2023-01-18T12:45:11.072Z,12.03
2023-01-18T12:47:39.361Z,11.13
2023-01-18T12:50:17.267Z,11.80
2023-01-18T12:52:47.251Z,11.43
2023-01-18T12:55:21.332Z,10.43
2023-01-18T12:57:46.696Z,11.17
2023-01-18T13:00:18.968Z,10.33
2023-01-18T13:02:45.804Z,10.90
2023-01-18T13:05:19.092Z,11.50
2023-01-18T13:07:47.630Z,12.50
2023-01-18T13:10:20.207Z,11.27
2023-01-18T13:12:44.886Z,10.50
2023-01-18T13:15:24.898Z,11.23
2023-01-18T13:17:57.769Z,13.07
2023-01-18T13:20:35.022Z,11.37
2023-01-18T13:23:12.093Z,11.13
2023-01-18T13:25:49.697Z,10.90
2023-01-18T13:28:20.518Z,10.70
2023-01-18T13:30:56.466Z,10.80
2023-01-18T13:33:24.480Z,10.27
2023-01-18T13:35:56.443Z,9.40
2023-01-18T13:38:40.173Z,11.13
2023-01-18T13:41:07.049Z,10.13
2023-01-18T13:44:05.318Z,11.10
2023-01-18T13:46:31.336Z,9.97
2023-01-18T13:48:57.296Z,10.00
2023-01-18T13:51:57.614Z,11.43
2023-01-18T13:55:23.859Z,9.73
2023-01-18T13:57:55.756Z,10.73
2023-01-18T14:00:25.695Z,11.33
2023-01-18T14:02:54.594Z,29.63
2023-01-18T14:05:25.337Z,19.37
2023-01-18T14:07:54.470Z,20.70
2023-01-18T14:10:31.791Z,21.77
2023-01-18T14:12:57.744Z,23.77
2023-01-18T14:15:28.991Z,23.17
2023-01-18T14:17:58.589Z,23.40
2023-01-18T14:21:10.850Z,20.43
2023-01-18T14:24:09.057Z,17.17
2023-01-18T14:26:36.372Z,14.27
2023-01-18T14:29:03.611Z,13.20
2023-01-18T14:31:32.255Z,11.53
2023-01-18T14:33:55.846Z,10.90
2023-01-18T14:36:23.404Z,11.67
2023-01-18T14:38:46.946Z,12.60
2023-01-18T14:41:18.044Z,13.17
2023-01-18T14:43:45.927Z,14.60
2023-01-18T14:46:15.942Z,13.33
2023-01-18T14:48:49.089Z,11.97
2023-01-18T14:51:19.137Z,12.60
2023-01-18T14:53:48.097Z,12.43
2023-01-18T14:56:20.828Z,12.53
2023-01-18T14:58:52.509Z,10.30
2023-01-18T15:01:30.613Z,10.30
2023-01-18T15:03:56.130Z,10.37
2023-01-18T15:06:29.354Z,10.17
2023-01-18T15:08:53.229Z,10.10
2023-01-18T15:11:18.295Z,10.30
2023-01-18T15:13:49.120Z,9.53
2023-01-18T15:16:13.438Z,9.90
2023-01-18T15:18:37.000Z,10.13
2023-01-18T15:21:06.248Z,10.13
2023-01-18T15:23:31.081Z,10.50
2023-01-18T15:25:56.730Z,10.33
2023-01-18T15:28:24.227Z,11.73
2023-01-18T15:30:52.032Z,12.93
2023-01-18T15:33:15.940Z,12.07
2023-01-18T15:35:39.682Z,13.23
2023-01-18T15:38:05.046Z,11.77
2023-01-18T15:40:31.051Z,12.13
2023-01-18T15:43:08.461Z,13.50
2023-01-18T15:45:35.802Z,12.40
2023-01-18T15:48:02.753Z,11.70
2023-01-18T15:50:32.816Z,11.87
2023-01-18T15:53:11.576Z,11.17
2023-01-18T15:55:40.011Z,11.57
2023-01-18T15:58:07.644Z,12.60
2023-01-18T16:00:41.119Z,11.10
2023-01-18T16:03:05.988Z,11.97
2023-01-18T16:05:29.594Z,12.50
2023-01-18T16:08:16.361Z,13.50
2023-01-18T16:10:51.009Z,14.43
2023-01-18T16:13:42.708Z,16.77
2023-01-18T16:16:15.500Z,15.40
2023-01-18T16:18:39.186Z,15.90
2023-01-18T16:21:03.729Z,16.97
2023-01-18T16:23:27.519Z,16.70
2023-01-18T16:25:53.462Z,15.37
2023-01-18T16:28:23.762Z,14.80
2023-01-18T16:30:51.900Z,13.57
2023-01-18T16:33:19.132Z,13.53
2023-01-18T16:35:42.991Z,12.73
2023-01-18T16:38:11.211Z,13.00
2023-01-18T16:40:39.475Z,12.17
2023-01-18T16:43:05.934Z,12.07
2023-01-18T16:45:30.869Z,11.73
2023-01-18T16:47:54.387Z,11.30
2023-01-18T16:50:20.368Z,13.23
2023-01-18T16:52:44.724Z,12.60
2023-01-18T16:55:10.902Z,13.17
2023-01-18T16:57:34.555Z,13.97
2023-01-18T16:59:58.113Z,22.83
2023-01-18T17:02:22.033Z,15.87
2023-01-18T17:04:46.688Z,14.90
2023-01-18T17:07:12.196Z,14.30
2023-01-18T17:09:47.155Z,13.13
2023-01-18T17:12:11.948Z,13.33
2023-01-18T17:14:35.523Z,14.23
2023-01-18T17:16:59.779Z,16.00
2023-01-18T17:19:24.626Z,17.57
2023-01-18T17:21:49.472Z,18.13
2023-01-18T17:24:15.297Z,21.00
2023-01-18T17:26:40.261Z,18.17
2023-01-18T17:29:05.181Z,18.07
2023-01-18T17:31:29.660Z,18.80
2023-01-18T17:33:53.162Z,21.00
2023-01-18T17:36:16.882Z,21.67
2023-01-18T17:38:40.437Z,23.80
2023-01-18T17:41:07.122Z,23.80
2023-01-18T17:43:34.380Z,20.97
2023-01-18T17:46:01.903Z,18.63
2023-01-18T17:48:25.789Z,16.93
2023-01-18T17:50:49.468Z,16.87
2023-01-18T17:53:13.014Z,15.40
2023-01-18T17:55:36.989Z,15.83
2023-01-18T17:58:01.949Z,15.63
2023-01-18T18:00:25.598Z,14.97
2023-01-18T18:02:52.762Z,16.07
2023-01-18T18:05:16.503Z,15.40
2023-01-18T18:07:40.265Z,18.07
2023-01-18T18:10:04.019Z,15.73
2023-01-18T18:12:28.126Z,15.30
2023-01-18T18:14:55.818Z,14.47
2023-01-18T18:17:19.544Z,15.33
2023-01-18T18:19:43.199Z,15.80
2023-01-18T18:22:07.230Z,15.50
2023-01-18T18:24:30.809Z,15.00
2023-01-18T18:26:54.567Z,15.27
2023-01-18T18:29:18.977Z,14.93
2023-01-18T18:31:44.627Z,15.10
2023-01-18T18:34:08.724Z,15.53
2023-01-18T18:36:32.579Z,15.10
2023-01-18T18:38:56.171Z,15.63
2023-01-18T18:41:19.983Z,16.73
2023-01-18T18:43:43.591Z,20.37
2023-01-18T18:46:07.438Z,25.13
2023-01-18T18:48:32.433Z,19.87
2023-01-18T18:50:56.265Z,18.67
2023-01-18T18:53:23.865Z,20.43
2023-01-18T18:55:59.347Z,20.50
2023-01-18T18:58:23.102Z,23.70
2023-01-18T19:00:47.202Z,22.50
2023-01-18T19:03:11.273Z,21.83
2023-01-18T19:05:37.182Z,22.63
2023-01-18T19:08:01.445Z,27.97
2023-01-18T19:10:27.542Z,23.97
2023-01-18T19:12:51.091Z,25.40
2023-01-18T19:15:14.788Z,22.50
2023-01-18T19:17:38.357Z,22.63
2023-01-18T19:20:01.977Z,22.97
2023-01-18T19:22:27.682Z,21.73
2023-01-18T19:24:51.249Z,21.90
2023-01-18T19:27:14.985Z,25.17
2023-01-18T19:29:39.409Z,22.47
2023-01-18T19:32:02.932Z,23.00
2023-01-18T19:34:27.088Z,25.17
2023-01-18T19:36:51.470Z,26.63
2023-01-18T19:39:22.367Z,24.23
2023-01-18T19:41:49.629Z,24.97
2023-01-18T19:44:13.233Z,26.57
2023-01-18T19:46:37.351Z,23.40
2023-01-18T19:49:02.757Z,23.97
2023-01-18T19:51:27.489Z,23.47
2023-01-18T19:53:51.230Z,25.97
2023-01-18T19:56:16.687Z,24.00
2023-01-18T19:58:41.830Z,24.70
2023-01-18T20:01:10.507Z,28.07
2023-01-18T20:03:34.466Z,37.70
2023-01-18T20:05:58.442Z,38.27
2023-01-18T20:08:22.558Z,39.30
2023-01-18T20:10:46.153Z,41.70
2023-01-18T20:13:11.528Z,37.77
2023-01-18T20:15:36.782Z,36.23
2023-01-18T20:18:01.037Z,35.10
2023-01-18T20:20:32.461Z,37.63
2023-01-18T20:22:57.260Z,34.17
2023-01-18T20:25:22.060Z,32.63
2023-01-18T20:27:46.433Z,32.23
2023-01-18T20:30:13.558Z,33.30
2023-01-18T20:32:37.958Z,32.80
2023-01-18T20:35:01.504Z,33.27
2023-01-18T20:37:25.693Z,32.57
2023-01-18T20:39:50.242Z,32.70
2023-01-18T20:42:15.451Z,33.20
2023-01-18T20:44:39.096Z,35.33
2023-01-18T20:47:04.924Z,34.27
2023-01-18T20:49:43.754Z,31.93
2023-01-18T20:52:07.757Z,32.40
2023-01-18T20:54:31.284Z,29.87
2023-01-18T20:56:55.440Z,27.97
2023-01-18T20:59:20.163Z,28.97
2023-01-18T21:01:44.083Z,26.80
2023-01-18T21:04:09.301Z,27.33
2023-01-18T21:06:34.117Z,27.73
2023-01-18T21:08:59.806Z,28.07
2023-01-18T21:11:25.395Z,27.23
2023-01-18T21:13:49.670Z,26.80
2023-01-18T21:16:13.827Z,29.17
2023-01-18T21:18:39.572Z,28.47
2023-01-18T21:21:05.900Z,29.00
2023-01-18T21:23:30.015Z,27.37
2023-01-18T21:25:55.953Z,27.47
2023-01-18T21:28:19.791Z,26.40
2023-01-18T21:30:43.446Z,27.67
2023-01-18T21:33:07.118Z,25.93
2023-01-18T21:35:31.089Z,26.20
2023-01-18T21:37:56.184Z,25.03
2023-01-18T21:40:20.064Z,24.77
2023-01-18T21:43:00.022Z,25.10
2023-01-18T21:45:40.864Z,23.33
2023-01-18T21:48:08.374Z,25.13
2023-01-18T21:50:49.253Z,26.77
2023-01-18T21:53:34.106Z,24.73
2023-01-18T21:55:57.666Z,22.67
2023-01-18T21:58:38.807Z,24.33
2023-01-18T22:01:02.486Z,22.57
2023-01-18T22:03:26.149Z,23.63
2023-01-18T22:05:49.769Z,24.30
2023-01-18T22:08:13.336Z,23.13
2023-01-18T22:10:38.439Z,24.13
2023-01-18T22:13:01.963Z,22.67
2023-01-18T22:15:25.563Z,23.97
2023-01-18T22:17:49.156Z,23.60
2023-01-18T22:20:13.832Z,22.30
2023-01-18T22:22:37.779Z,23.10
2023-01-18T22:25:02.370Z,22.67
2023-01-18T22:27:27.332Z,21.23
2023-01-18T22:29:51.210Z,20.47
2023-01-18T22:32:14.751Z,20.47
2023-01-18T22:34:38.375Z,19.27
2023-01-18T22:37:03.203Z,20.17
2023-01-18T22:39:26.864Z,19.83
2023-01-18T22:41:50.411Z,19.13
2023-01-18T22:44:17.417Z,19.17
2023-01-18T22:46:40.962Z,19.97
2023-01-18T22:49:04.703Z,19.83
2023-01-18T22:51:28.390Z,18.53
2023-01-18T22:53:52.563Z,20.27
2023-01-18T22:56:20.020Z,20.03
2023-01-18T22:58:43.761Z,19.40
2023-01-18T23:01:21.389Z,17.93
2023-01-18T23:03:45.492Z,17.63
2023-01-18T23:06:10.567Z,18.83
2023-01-18T23:08:42.525Z,18.90
2023-01-18T23:11:06.204Z,17.53
2023-01-18T23:13:29.735Z,17.20
2023-01-18T23:16:10.378Z,17.87
2023-01-18T23:18:35.378Z,17.80
2023-01-18T23:21:00.028Z,17.77
2023-01-18T23:23:23.677Z,17.10
2023-01-18T23:25:47.265Z,18.30
2023-01-18T23:28:10.860Z,17.63
2023-01-18T23:30:34.488Z,18.43
2023-01-18T23:32:58.204Z,18.40
2023-01-18T23:35:23.141Z,18.50
2023-01-18T23:37:46.757Z,17.57
2023-01-18T23:40:30.956Z,18.03
2023-01-18T23:43:12.453Z,17.67
2023-01-18T23:45:53.304Z,18.40
2023-01-18T23:48:36.385Z,17.67
2023-01-18T23:51:18.829Z,17.20
2023-01-18T23:53:59.964Z,17.60
2023-01-18T23:56:23.605Z,17.37
2023-01-18T23:58:47.109Z,17.77
